X  Close Metar Aviation Weather Data     EHKD De Kooy Airport
Temperature
18°C Temperature
14°C Dewpoint
78% Humidity



Wind
34 KM/H
21 MPH
9 M/S
18 KTS



230°
SW
Current Conditions

Mostly Scattered Clouds Mostly Scattered Clouds
Pressure 1008.81 (hPa) - 29.79 (inHg)
Visibility 6 (mile) - 9.7 (km)
Airport
Airport-code EHKD

Location: De Kooy Airport
Distance: 34 (km)

Metar:
EHKD 161545Z AUTO 23018KT 9999 SCT014 OVC150 18/14 Q1009 BLU NOSIG

Time: 16-07-2024 17:45 CEST